Station info - map view · info · telemetry · weather · raw · status · beacons · messages · bulletins · browse · moving · my account
Callsign, ship name or locator: Clear       
It is possible to search using wildcards (*?) after a prefix. Example: OH*
APRS station KN6BGN-8 - show graphs
Map loading...
Comment: "5b}
Mic-E message: Off duty
Location: 37°05.47' N 122°05.13' W - locator CM87WC91RV - show map - static map
263.5 yards North bearing 18° from Ben Lomond, Santa Cruz County, California, United States [?]
1.5 miles Southeast bearing 133° from Brookdale, Santa Cruz County, California, United States
20.1 miles Southwest bearing 211° from San Jose, Santa Clara County, California, United States
50.6 miles South bearing 159° from San Francisco, San Francisco County, California, United States
Last position: 2021-04-11 00:32:11 EDT (6d 4h15m ago)
2021-04-10 21:32:11 PDT local time at Ben Lomond, United States [?]
Altitude: 344 ft
Course: 357°
Speed: 17 MPH
Device: Yaesu: FTM-100D (rig)
Last path: KN6BGN-8>SWPUTW via WIDE1-1,qAO,N6RJX (good)
Positions stored: 8967
Other SSIDs: KN6BGN-7
Stations near current position of KN6BGN-8 - show more
callsign distance last heard - EDT      callsign distance last heard - EDT
KN6BGN-5118.1 yards 286°2021-04-14 13:05:21 K6HJU B256.0 yards 198°2021-04-17 04:36:51
K6HJU-B256.0 yards 198°2021-04-17 04:37:01 KN6BGN-71.0 miles 130°2021-03-23 00:19:23
K6XTC-11.9 miles 55°2021-04-17 04:37:36 EW15761.9 miles 329°2021-04-17 04:45:23
DW60611.9 miles 320°2021-04-17 04:32:34 CW92342.0 miles 59°2021-04-07 23:57:03
CW70522.2 miles 314°2021-04-17 04:42:10 CW73952.8 miles 315°2021-04-17 04:45:56
CW52722.8 miles 94°2021-04-17 04:43:19 K6PRL-92.9 miles 167°2021-04-14 21:44:55
N6RJX2.9 miles 167°2021-04-17 04:12:26 N6RJX-102.9 miles 162°2021-04-06 14:06:53
FW42253.1 miles 121°2021-04-17 04:42:53 FW87013.4 miles 172°2021-04-17 04:45:30
AC6SL-83.4 miles 326°2021-04-11 13:33:52 W6/NC-3733.5 miles 82°2021-04-02 17:27:32
EW29463.5 miles 172°2021-04-17 04:45:20 DW31503.6 miles 130°2021-04-17 04:45:03
Stations which heard KN6BGN-8 directly on radio –
callsign pkts first heard - EDT last heard longest (tx => rx) longest at - EDT
W6BXN-3 45 2021-04-10 20:26:38 2021-04-10 23:36:06 CM96GU > CM97XM 91.8 miles 58° 2021-04-10 23:36:06
WR6ABD 10 2021-04-03 12:54:22 2021-04-11 00:21:12 CM96ER > CM97BC 28.2 miles 339° 2021-04-03 13:32:27
K6IXA-3 38 2021-04-03 15:37:15 2021-04-10 23:37:06 CM96FU > DM06NR 146.3 miles 92° 2021-04-10 23:37:06
K6JE-3 30 2021-04-03 13:12:23 2021-04-11 00:02:49 CM96KE > CM96FS 43.3 miles 333° 2021-04-03 14:14:48
KE6AFE 16 2021-04-03 12:46:35 2021-04-11 00:22:19 CM96CU > CM86XX 15.7 miles 299° 2021-04-03 13:10:22
K6LY-3 5 2021-04-03 13:22:20 2021-04-03 13:38:31 CM96EU > CM96AO 24.6 miles 221° 2021-04-03 13:22:20
N7ZEV-3 24 2021-04-03 22:45:24 2021-04-10 14:59:42 DM27EM > DM26FH 84.4 miles 179° 2021-04-08 18:41:05
N7ZEV-1 26 2021-04-03 20:53:12 2021-04-10 15:01:46 DM26OE > DM25GV 44.6 miles 244° 2021-04-06 16:30:20
VEGAS 79 2021-04-03 20:13:18 2021-04-10 16:54:22 DM14MV > DM25FX 108.6 miles 47° 2021-04-10 16:54:22
AA5QJ-1 70 2021-04-03 22:47:23 2021-04-10 13:58:42 DM26OA > DM26IE 28.9 miles 297° 2021-04-05 16:33:47
KELLER 28 2021-04-03 18:39:28 2021-04-10 18:18:10 DM05TD > DM14LE 100.5 miles 129° 2021-04-10 18:18:10
KE6AFE-2 7 2021-04-10 23:27:11 2021-04-11 00:20:18 CM96HV > CM86XX 34.3 miles 279° 2021-04-10 23:27:11
K6BJ-3 15 2021-04-10 22:36:12 2021-04-11 00:29:11 CM96HW > CM96AX 33.8 miles 277° 2021-04-10 23:25:12
W6AB-15 1 2021-04-03 14:26:56 2021-04-03 14:26:56 CM96MB > CM94SS 94.8 miles 163° 2021-04-03 14:26:56
W6TZI-1 5 2021-04-10 20:14:02 2021-04-10 20:19:02 CM96VD > CM96TD 10.2 miles 263° 2021-04-10 20:14:02
W6SRR-3 2 2021-04-03 13:08:21 2021-04-10 23:54:06 CM96CV > CM97AO 51.4 miles 351° 2021-04-03 13:08:21
KN0RDC-15 1 2021-04-03 17:56:37 2021-04-03 17:56:37 DM05NI > DM04KT 39.4 miles 202° 2021-04-03 17:56:37
KG6PJG-10 24 2021-04-03 18:38:20 2021-04-10 17:04:44 DM25EL > DM14NF 110.0 miles 220° 2021-04-03 20:59:11
WB9VXY-5 8 2021-04-03 14:50:54 2021-04-03 15:20:06 CM95UR > CM95PJ 33.4 miles 225° 2021-04-03 15:20:06
N6LXX-10 11 2021-04-03 17:39:01 2021-04-10 17:42:58 DM14NV > DM04UJ 90.0 miles 247° 2021-04-10 16:52:12
N6LXX-1 69 2021-04-03 19:09:36 2021-04-10 16:59:24 DM14GX > DM15RC 54.1 miles 81° 2021-04-03 19:09:36
KC7ZIE-9 3 2021-04-07 19:39:13 2021-04-08 15:27:10 DM26MK > DM25JX 34.2 miles 200° 2021-04-08 15:27:10
N6LXX-4 31 2021-04-03 18:58:25 2021-04-10 18:20:10 DM25BJ > DM14DI 125.3 miles 236° 2021-04-10 15:05:46
W7BF-3 2 2021-04-10 16:38:05 2021-04-10 16:46:13 DM14PW > DM24DO 64.3 miles 110° 2021-04-10 16:46:13
N6RJX 2 2021-04-11 00:25:18 2021-04-11 00:32:11 CM87WC > CM87XB 2.9 miles 167° 2021-04-11 00:32:11
W6RR 23 2021-04-03 14:41:54 2021-04-03 15:13:58 CM95TP > CM95PP 19.6 miles 263° 2021-04-03 15:13:58
K6XTC-1 4 2021-04-03 12:45:30 2021-04-11 00:28:11 CM96BW > CM87XC 16.2 miles 314° 2021-04-03 13:03:21
N6VYT-7 43 2021-04-03 15:27:15 2021-04-10 20:33:02 CM96SL > DM05RU 111.3 miles 112° 2021-04-10 20:33:02
SHAVER 16 2021-04-03 15:33:15 2021-04-10 21:10:33 DM05EN > DM07IC 108.8 miles 8° 2021-04-03 17:05:27
N6VYT-6 3 2021-04-10 19:56:58 2021-04-10 20:14:31 CM96VD > DM06JM 59.0 miles 65° 2021-04-10 20:14:31
K7STI-10 168 2021-04-03 22:25:57 2021-04-10 14:45:06 DM26MM > DM25IX 41.1 miles 207° 2021-04-08 15:31:13
AC6SL-8 1 2021-04-11 00:04:47 2021-04-11 00:04:47 CM96BW > CM87WD 20.5 miles 310° 2021-04-11 00:04:47
WI6RE-1 13 2021-04-03 18:36:08 2021-04-10 18:06:46 DM14LV > DM15DL 54.7 miles 319° 2021-04-10 17:01:31
KM6UTN-2 2 2021-04-03 18:00:40 2021-04-10 18:36:30 DM05OH > DM04LU 36.2 miles 203° 2021-04-03 18:00:40
KJ7OWD-1 19 2021-04-03 22:50:23 2021-04-10 14:15:46 DM26RF > DM26IH 43.9 miles 275° 2021-04-06 16:13:19
AC6EE-3 8 2021-04-03 18:18:41 2021-04-10 19:02:08 DM05KI > DM05SB 43.2 miles 120° 2021-04-10 19:02:08
BLOW 1 2021-04-06 14:48:47 2021-04-06 14:48:47 DM26RL > DM37NO 120.0 miles 49° 2021-04-06 14:48:47
WR7NV-1 6 2021-04-06 13:37:18 2021-04-06 16:18:21 DM26QF > DM37CB 71.0 miles 36° 2021-04-06 16:18:21
N6YCE-10 8 2021-04-10 19:59:58 2021-04-10 20:06:58 DM05AX > DM06CH 23.9 miles 26° 2021-04-10 19:59:58
K7TOK-15 3 2021-04-06 15:04:21 2021-04-06 15:35:00 DM26RK > DM26SN 11.4 miles 28° 2021-04-06 15:35:00

Only position packets which were originated by the station are shown here. The range statistics show some extra long hops, because some digipeaters do not correctly add themselves to the digipeater path. Please check the raw packets.
About this site
This page shows real-time information collected from the Automatic Position Reporting System Internet network (APRS-IS). APRS is used by amateur (ham) radio operators to transmit real-time position information, weather data, telemetry and messages over the radio. A vehicle equipped with a GPS receiver, a VHF transmitter or HF transceiver and a small computer device called a tracker transmits it's location, speed and course in a small data packet, which is then received by a nearby iGate receiving site which forwards the packet on the Internet. Systems connected to the Internet can send information on the APRS-IS without a radio transmitter, or collect and display information transmitted anywhere in the world.
User guide · FAQ · Blog · Discussion group · Linking to aprs.fi · AIS sites · Service status · Database statistics · Advertising on aprs.fi · Technical details · API · Change log · Planned changes · Credits and thanks · Terms Of Service · iPhone/iPad APRS